Time;durP1;ratioP1;P1;durP2;ratioP2;P2;SDS_P1;SDS_P2;PMS_P1;PMS_P2;Temp;Humidity;BMP_temperature;BMP_pressure;BME280_temperature;BME280_humidity;BME280_pressure;Samples;Min_cycle;Max_cycle;Signal;HPM_P1;HPM_P2
2023/06/08 00:00:20;;;;;;;3.90;3.47;;;;;;;-143.84;87.66;44786.31;5109410;28;20435;-56
2023/06/08 00:02:48;;;;;;;4.30;4.00;;;;;;;-143.84;87.44;44788.22;5109598;28;20440;-56
2023/06/08 00:05:16;;;;;;;5.10;4.57;;;;;;;-143.84;87.77;44742.50;5109277;28;20445;-56
2023/06/08 00:07:43;;;;;;;12.87;5.23;;;;;;;-143.84;88.03;44746.31;5109259;28;20455;-56
2023/06/08 00:10:11;;;;;;;12.07;4.63;;;;;;;-143.84;88.16;44723.47;5109316;28;20483;-56
2023/06/08 00:12:38;;;;;;;9.07;4.73;;;;;;;-143.84;88.16;44708.25;5102230;28;20476;-56
2023/06/08 00:15:07;;;;;;;6.97;4.30;;;;;;;-143.84;88.35;44694.91;5095498;28;20579;-56
2023/06/08 00:17:34;;;;;;;5.23;4.10;;;;;;;-143.84;88.54;44654.94;5095601;28;20440;-56
2023/06/08 00:20:08;;;;;;;5.53;3.90;;;;;;;-143.84;88.76;44628.28;5095245;28;21003;-56
2023/06/08 00:22:36;;;;;;;5.13;3.93;;;;;;;-143.84;89.10;44584.47;5095195;28;20443;-56
2023/06/08 00:25:04;;;;;;;15.40;4.60;;;;;;;-143.84;89.49;44567.34;5095365;28;20448;-56
2023/06/08 00:27:31;;;;;;;15.87;4.70;;;;;;;-143.84;89.71;44519.75;5095582;28;20440;-56
2023/06/08 00:29:59;;;;;;;5.23;4.20;;;;;;;-143.84;90.04;44435.97;5095566;28;20436;-56
2023/06/08 00:32:26;;;;;;;6.80;4.40;;;;;;;-143.84;90.21;44405.53;5095599;28;20859;-56
2023/06/08 00:34:53;;;;;;;7.23;4.93;;;;;;;-143.84;90.62;44308.44;5095686;28;20437;-56
2023/06/08 00:37:21;;;;;;;5.53;4.20;;;;;;;-143.84;90.86;44222.75;5095674;28;20485;-56
2023/06/08 00:39:48;;;;;;;7.00;3.80;;;;;;;-143.84;90.87;44188.50;5095729;28;20577;-56
2023/06/08 00:42:15;;;;;;;7.00;4.83;;;;;;;-143.84;90.93;44169.47;5095236;28;20432;-56
2023/06/08 00:44:43;;;;;;;8.90;4.50;;;;;;;-143.84;91.21;44100.94;5095346;28;20444;-56
2023/06/08 00:47:10;;;;;;;6.57;4.80;;;;;;;-143.84;91.46;44072.38;5095465;28;20925;-56
2023/06/08 00:49:38;;;;;;;13.10;5.47;;;;;;;-143.84;91.47;44047.63;5095754;28;20440;-56
2023/06/08 00:52:07;;;;;;;10.23;4.73;;;;;;;-143.84;91.42;44036.22;5094662;28;20486;-56
2023/06/08 00:54:39;;;;;;;8.80;4.73;;;;;;;-143.84;91.26;44030.50;5094329;28;20440;-56
2023/06/08 00:57:08;;;;;;;10.80;4.70;;;;;;;-143.84;91.32;44081.88;5094736;28;20437;-56
2023/06/08 00:59:35;;;;;;;11.67;4.70;;;;;;;-143.84;91.41;44081.88;5094539;28;20519;-56
2023/06/08 01:02:04;;;;;;;5.93;4.63;;;;;;;-143.84;91.36;44059.03;5094774;28;20468;-56
2023/06/08 01:04:31;;;;;;;9.37;4.17;;;;;;;-143.84;91.35;44059.03;5094991;28;20439;-56
2023/06/08 01:07:14;;;;;;;10.90;4.50;;;;;;;-143.84;91.49;44070.47;5095491;28;20811;-56
2023/06/08 01:09:50;;;;;;;13.60;4.73;;;;;;;-143.84;91.54;44083.78;5095330;28;20451;-56
2023/06/08 01:12:24;;;;;;;6.00;4.17;;;;;;;-143.84;91.65;44030.50;5095199;28;20483;-56
2023/06/08 01:15:00;;;;;;;5.80;3.80;;;;;;;-143.84;91.66;44028.59;5095113;28;20488;-56
2023/06/08 01:17:37;;;;;;;6.40;4.50;;;;;;;-143.84;91.71;43994.31;5094985;28;20435;-56
2023/06/08 01:20:12;;;;;;;5.10;4.70;;;;;;;-143.84;91.75;44001.94;5095223;28;20438;-56
2023/06/08 01:23:00;;;;;;;6.70;4.27;;;;;;;-143.84;91.70;43990.53;5095301;28;20504;-56
2023/06/08 01:25:30;;;;;;;9.67;4.30;;;;;;;-143.84;91.89;43973.38;5091396;28;20448;-56
2023/06/08 01:28:12;;;;;;;4.63;4.23;;;;;;;-143.84;91.93;43967.69;5092049;28;20460;-56
2023/06/08 01:30:40;;;;;;;8.67;4.50;;;;;;;-143.84;92.03;43948.63;5091763;28;20950;-56
2023/06/08 01:33:08;;;;;;;8.00;4.37;;;;;;;-143.84;92.15;43927.69;5091953;28;20863;-56
2023/06/08 01:35:35;;;;;;;11.67;4.17;;;;;;;-143.84;92.37;43912.47;5091674;28;20436;-56
2023/06/08 01:38:11;;;;;;;8.60;4.50;;;;;;;-143.84;92.34;43872.50;5091739;28;20440;-56
2023/06/08 01:40:45;;;;;;;6.93;4.17;;;;;;;-143.84;92.39;43880.13;5091769;28;20950;-56
2023/06/08 01:43:13;;;;;;;10.50;4.10;;;;;;;-143.84;92.59;43880.13;5091539;28;20452;-56
2023/06/08 01:45:46;;;;;;;16.23;5.30;;;;;;;-143.84;92.60;43872.50;5091505;28;20482;-56
2023/06/08 01:48:15;;;;;;;8.03;4.53;;;;;;;-143.84;92.58;43882.00;5091191;28;20526;-56
2023/06/08 01:50:45;;;;;;;8.20;4.60;;;;;;;-143.84;92.71;43843.94;5091294;28;20514;-56
2023/06/08 01:53:12;;;;;;;15.63;4.50;;;;;;;-143.84;92.50;43889.63;5091300;28;20515;-56
2023/06/08 01:55:41;;;;;;;7.10;4.80;;;;;;;-143.84;92.60;43893.44;5091405;28;20444;-56
2023/06/08 01:58:08;;;;;;;10.10;4.60;;;;;;;-143.84;92.44;43883.91;5091395;28;20440;-56
2023/06/08 02:00:35;;;;;;;4.83;4.40;;;;;;;-143.84;92.46;43866.78;5091324;28;20505;-56
2023/06/08 02:03:02;;;;;;;12.33;5.23;;;;;;;-143.84;92.54;43868.69;5091341;28;20445;-56
2023/06/08 02:05:29;;;;;;;12.63;4.50;;;;;;;-143.84;92.41;43899.16;5091255;28;20437;-56
2023/06/08 02:07:56;;;;;;;7.93;5.00;;;;;;;-143.84;92.19;43942.94;5091294;28;20875;-56
2023/06/08 02:10:24;;;;;;;5.30;4.47;;;;;;;-143.84;91.88;43942.94;5091076;28;20522;-56
2023/06/08 02:12:53;;;;;;;7.67;4.83;;;;;;;-143.84;91.69;44005.75;5090828;28;20476;-56
2023/06/08 02:15:20;;;;;;;7.30;4.00;;;;;;;-143.84;91.61;43990.53;5091008;28;20492;-56
2023/06/08 02:17:47;;;;;;;16.60;5.20;;;;;;;-143.84;91.73;43975.28;5090678;28;20965;-56
2023/06/08 02:20:14;;;;;;;10.37;4.47;;;;;;;-143.84;91.50;44005.75;5090989;28;20437;-56
2023/06/08 02:22:42;;;;;;;7.47;4.60;;;;;;;-143.84;91.64;44022.88;5090775;28;20440;-56
2023/06/08 02:25:10;;;;;;;12.53;5.10;;;;;;;-143.84;91.40;44057.16;5090631;28;20504;-56
2023/06/08 02:27:37;;;;;;;7.47;5.00;;;;;;;-143.84;91.62;44026.69;5090658;28;20441;-56
2023/06/08 02:30:09;;;;;;;6.80;4.00;;;;;;;-143.84;91.76;44007.66;5090764;28;20502;-56
2023/06/08 02:32:36;;;;;;;9.73;4.80;;;;;;;-143.84;91.77;43973.38;5090440;28;20487;-56
2023/06/08 02:35:04;;;;;;;7.57;4.23;;;;;;;-143.84;91.48;44032.41;5089702;28;20497;-56
2023/06/08 02:37:33;;;;;;;6.83;4.47;;;;;;;-143.84;91.60;44038.09;5090211;28;20519;-56
2023/06/08 02:40:02;;;;;;;16.43;4.30;;;;;;;-143.84;91.46;44074.28;5090497;28;20865;-56
2023/06/08 02:42:29;;;;;;;7.33;4.17;;;;;;;-143.84;91.42;44066.66;5090290;28;20531;-56
2023/06/08 02:44:56;;;;;;;7.10;4.30;;;;;;;-143.84;91.21;44066.66;5090308;28;20945;-56
2023/06/08 02:47:25;;;;;;;8.37;4.20;;;;;;;-143.84;91.15;44125.69;5090458;28;20533;-56
2023/06/08 02:49:52;;;;;;;5.97;4.10;;;;;;;-143.84;90.98;44114.25;5090201;28;20486;-56
2023/06/08 02:52:20;;;;;;;8.37;4.20;;;;;;;-143.84;90.74;44178.97;5090172;28;20494;-56
2023/06/08 02:54:47;;;;;;;6.50;4.00;;;;;;;-143.84;90.60;44169.47;5090340;28;20942;-56
2023/06/08 02:57:15;;;;;;;10.53;4.37;;;;;;;-143.84;90.52;44247.50;5090396;28;20506;-56
2023/06/08 02:59:42;;;;;;;9.70;3.60;;;;;;;-143.84;90.33;44295.09;5090117;28;20432;-56
2023/06/08 03:02:09;;;;;;;4.30;3.90;;;;;;;-143.84;90.33;44316.03;5090234;28;20497;-56
2023/06/08 03:04:38;;;;;;;7.33;4.60;;;;;;;-143.84;90.21;44340.78;5090041;28;20452;-56
2023/06/08 03:07:09;;;;;;;5.63;3.40;;;;;;;-143.84;90.11;44390.28;5090247;28;20529;-56
2023/06/08 03:09:36;;;;;;;4.80;3.77;;;;;;;-143.84;90.03;44415.03;5090129;28;20436;-56
2023/06/08 03:12:05;;;;;;;8.73;3.70;;;;;;;-143.84;89.84;44399.81;5089741;28;20488;-56
2023/06/08 03:14:32;;;;;;;8.80;3.87;;;;;;;-143.84;89.79;44401.72;5089789;28;20512;-56
2023/06/08 03:17:02;;;;;;;6.10;3.93;;;;;;;-143.84;89.65;44426.47;5089882;28;20787;-55
2023/06/08 03:19:30;;;;;;;6.20;3.30;;;;;;;-143.84;89.50;44481.69;5089665;28;20436;-55
2023/06/08 03:22:00;;;;;;;8.93;4.20;;;;;;;-143.84;89.37;44508.31;5089558;28;20445;-55
2023/06/08 03:24:28;;;;;;;10.27;4.43;;;;;;;-143.84;89.21;44550.22;5089418;28;20448;-55
2023/06/08 03:26:56;;;;;;;6.00;3.70;;;;;;;-143.84;88.77;44584.47;5089372;28;20444;-55
2023/06/08 03:29:24;;;;;;;4.33;3.93;;;;;;;-143.84;88.19;44645.41;5089375;28;20439;-55
2023/06/08 03:31:51;;;;;;;3.97;3.60;;;;;;;-143.84;88.02;44653.03;5089363;28;20424;-55
2023/06/08 03:34:18;;;;;;;6.30;3.73;;;;;;;-143.84;84.26;44898.66;5089428;28;20444;-55
2023/06/08 03:36:46;;;;;;;3.60;3.30;;;;;;;-143.84;78.82;45010.97;5089366;28;20442;-55
2023/06/08 03:39:14;;;;;;;6.80;3.30;;;;;;;-143.84;74.81;45062.41;5089243;28;20455;-55
2023/06/08 03:41:42;;;;;;;4.50;3.60;;;;;;;-143.84;70.14;45041.44;5089122;28;20451;-55
2023/06/08 03:44:09;;;;;;;8.23;3.10;;;;;;;-143.84;65.93;45037.66;5089167;28;20443;-55
2023/06/08 03:46:36;;;;;;;3.20;2.80;;;;;;;-143.84;62.85;45043.34;5106414;28;20443;-55
2023/06/08 03:49:03;;;;;;;7.30;3.40;;;;;;;-143.84;60.45;45018.59;5109521;28;20447;-55
2023/06/08 03:51:30;;;;;;;5.60;2.47;;;;;;;-143.84;58.17;45033.84;5109431;28;20447;-55
2023/06/08 03:53:57;;;;;;;5.10;2.83;;;;;;;-143.84;56.85;45037.66;5109580;28;20980;-55
2023/06/08 03:56:26;;;;;;;5.37;3.20;;;;;;;-143.84;54.63;45018.59;5109758;28;20508;-55
2023/06/08 03:58:56;;;;;;;5.53;3.43;;;;;;;-143.84;53.72;45009.09;5109530;28;21104;-56
2023/06/08 04:01:24;;;;;;;3.20;2.37;;;;;;;-143.84;52.93;45020.50;5109372;28;20446;-55
2023/06/08 04:03:51;;;;;;;3.70;2.60;;;;;;;-143.84;51.60;45026.22;5109475;28;20450;-55
2023/06/08 04:06:18;;;;;;;2.87;2.17;;;;;;;-143.84;51.14;45016.69;5109435;28;20431;-55
2023/06/08 04:08:46;;;;;;;2.83;2.53;;;;;;;-143.84;50.39;45014.78;5109359;28;20442;-55
2023/06/08 04:11:13;;;;;;;6.63;2.50;;;;;;;-143.84;49.72;45010.97;5109511;28;21049;-55
2023/06/08 04:13:42;;;;;;;2.87;2.57;;;;;;;-143.84;49.67;44997.66;5109251;28;20894;-55
2023/06/08 04:16:10;;;;;;;4.27;2.80;;;;;;;-143.84;48.40;45007.19;5109136;28;20581;-55
2023/06/08 04:18:39;;;;;;;6.73;3.43;;;;;;;-143.84;47.58;44982.41;5109406;28;20448;-55
2023/06/08 04:21:06;;;;;;;5.67;2.83;;;;;;;-143.84;47.68;44976.72;5109146;28;20482;-55
2023/06/08 04:23:34;;;;;;;11.17;3.13;;;;;;;-143.84;46.07;44980.53;5109230;28;20482;-55
2023/06/08 04:26:02;;;;;;;4.23;2.47;;;;;;;-143.84;45.98;44997.66;5109304;28;21006;-55
2023/06/08 04:28:30;;;;;;;3.47;2.73;;;;;;;-143.84;45.70;44967.19;5109352;28;20517;-55
2023/06/08 04:31:00;;;;;;;3.23;2.53;;;;;;;-143.84;44.56;44988.13;5109225;28;20497;-55
2023/06/08 04:33:27;;;;;;;5.20;2.47;;;;;;;-143.84;44.93;44967.19;5109029;28;20489;-55
2023/06/08 04:35:54;;;;;;;3.47;2.30;;;;;;;-143.84;44.22;44957.66;5108796;28;20952;-55
2023/06/08 04:38:22;;;;;;;6.80;2.83;;;;;;;-143.84;44.26;44986.22;5109004;28;20436;-55
2023/06/08 04:40:49;;;;;;;2.20;2.00;;;;;;;-143.84;43.32;44991.94;5109158;28;20797;-55
2023/06/08 04:43:17;;;;;;;5.00;2.60;;;;;;;-143.84;43.28;44990.03;5109103;28;20440;-55
2023/06/08 04:45:45;;;;;;;6.40;2.30;;;;;;;-143.84;42.41;45014.78;5108959;28;20530;-55
2023/06/08 04:48:15;;;;;;;14.03;2.10;;;;;;;-143.84;42.41;45007.19;5108872;28;20803;-55
2023/06/08 04:50:45;;;;;;;3.30;3.00;;;;;;;-143.84;41.74;44990.03;5108868;28;20901;-55
2023/06/08 04:53:13;;;;;;;5.27;2.53;;;;;;;-143.84;42.26;44976.72;5108727;28;20475;-54
2023/06/08 04:55:45;;;;;;;5.87;2.07;;;;;;;-143.84;43.25;45020.50;5108830;28;20505;-55
2023/06/08 04:58:13;;;;;;;2.20;2.00;;;;;;;-143.84;42.65;44990.03;5108807;28;20446;-55
2023/06/08 05:00:40;;;;;;;6.30;2.23;;;;;;;-143.84;42.28;44991.94;5112719;28;20456;-54
2023/06/08 05:03:07;;;;;;;2.40;2.10;;;;;;;-143.84;41.63;45028.13;5112462;28;20446;-54
2023/06/08 05:05:36;;;;;;;9.40;2.77;;;;;;;-143.84;41.63;44976.72;5112779;28;20435;-54
2023/06/08 05:08:03;;;;;;;4.33;2.07;;;;;;;-143.84;40.51;44991.94;5112533;28;20485;-54
2023/06/08 05:10:30;;;;;;;3.57;2.37;;;;;;;-143.84;40.06;44990.03;5112826;28;20504;-55
2023/06/08 05:12:58;;;;;;;2.27;2.03;;;;;;;-143.84;40.03;44997.66;5112344;28;20475;-55
2023/06/08 05:15:25;;;;;;;14.10;2.80;;;;;;;-143.84;39.64;44993.84;5112365;28;20536;-55
2023/06/08 05:17:53;;;;;;;4.70;2.40;;;;;;;-143.84;39.57;44997.66;5112563;28;20443;-55
2023/06/08 05:20:22;;;;;;;3.40;1.87;;;;;;;-143.84;39.58;44984.31;5112641;28;20870;-55
2023/06/08 05:22:50;;;;;;;2.20;2.00;;;;;;;-143.84;38.98;45018.59;5112586;28;20431;-55
2023/06/08 05:25:18;;;;;;;3.03;1.83;;;;;;;-143.84;38.44;44980.53;5111856;28;20443;-55
2023/06/08 05:27:45;;;;;;;4.40;2.00;;;;;;;-143.84;38.86;44984.31;5111583;28;20439;-55
2023/06/08 05:30:12;;;;;;;4.33;2.30;;;;;;;-143.84;38.58;44988.13;5111417;28;20432;-55
2023/06/08 05:32:40;;;;;;;2.87;2.33;;;;;;;-143.84;38.57;44974.81;5111605;28;20468;-55
2023/06/08 05:35:07;;;;;;;5.87;2.77;;;;;;;-143.84;38.58;44972.91;5111652;28;20440;-55
2023/06/08 05:37:35;;;;;;;6.73;2.07;;;;;;;-143.84;38.97;44965.28;5112003;28;20443;-55
2023/06/08 05:40:04;;;;;;;3.40;2.43;;;;;;;-143.84;37.69;44980.53;5112172;28;21319;-55
2023/06/08 05:42:31;;;;;;;7.80;2.30;;;;;;;-143.84;38.09;44971.00;5111862;28;20444;-55
2023/06/08 05:44:58;;;;;;;3.77;2.40;;;;;;;-143.84;38.53;44976.72;5111790;28;20853;-55
2023/06/08 05:47:25;;;;;;;7.80;2.07;;;;;;;-143.84;36.68;44965.28;5111908;28;20508;-55
2023/06/08 05:49:52;;;;;;;4.53;2.70;;;;;;;-143.84;37.47;44976.72;5111828;28;20502;-55
2023/06/08 05:52:19;;;;;;;5.40;2.10;;;;;;;-143.84;37.26;44963.38;5111837;28;20488;-55
2023/06/08 05:54:47;;;;;;;3.10;1.60;;;;;;;-143.84;36.17;44950.06;5111729;28;20483;-55
2023/06/08 05:57:15;;;;;;;4.67;2.07;;;;;;;-143.84;36.60;44946.25;5111632;28;20908;-55
2023/06/08 05:59:42;;;;;;;3.93;2.10;;;;;;;-143.84;36.45;44957.66;5111541;28;20498;-55
2023/06/08 06:02:09;;;;;;;5.90;2.20;;;;;;;-143.84;36.00;44957.66;5111401;28;20439;-55
2023/06/08 06:04:36;;;;;;;8.20;2.20;;;;;;;-143.84;35.76;44976.72;5111727;28;20457;-55
2023/06/08 06:07:05;;;;;;;2.53;2.33;;;;;;;-143.84;35.85;44938.63;5111799;28;20445;-55
2023/06/08 06:09:33;;;;;;;4.17;1.63;;;;;;;-143.84;35.12;44967.19;5111024;28;20497;-55
2023/06/08 06:12:01;;;;;;;2.00;1.90;;;;;;;-143.84;35.63;44969.09;5111171;28;20494;-55
2023/06/08 06:14:37;;;;;;;3.90;2.13;;;;;;;-143.84;35.80;44969.09;5111110;28;20529;-55
2023/06/08 06:17:05;;;;;;;2.70;2.10;;;;;;;-143.84;35.10;44931.00;5111097;28;21333;-55
2023/06/08 06:19:36;;;;;;;1.93;1.80;;;;;;;-143.84;35.19;44976.72;5111040;28;20445;-55
2023/06/08 06:22:03;;;;;;;9.33;2.77;;;;;;;-143.84;36.09;44969.09;5111159;28;20435;-55
2023/06/08 06:24:30;;;;;;;3.83;2.33;;;;;;;-143.84;33.83;44974.81;5111331;28;20447;-55
2023/06/08 06:26:58;;;;;;;3.50;2.40;;;;;;;-143.84;34.53;44961.47;5111322;28;20455;-55
2023/06/08 06:29:25;;;;;;;3.47;2.10;;;;;;;-143.84;35.26;44976.72;5111255;28;20527;-55
2023/06/08 06:31:53;;;;;;;3.90;2.83;;;;;;;-143.84;35.68;44957.66;5111096;28;20434;-55
2023/06/08 06:34:20;;;;;;;8.43;2.53;;;;;;;-143.84;35.07;44953.88;5110712;28;20471;-55
2023/06/08 06:36:48;;;;;;;3.70;2.60;;;;;;;-143.84;35.08;44991.94;5111044;28;20447;-55
2023/06/08 06:39:15;;;;;;;4.23;2.80;;;;;;;-143.84;35.62;44984.31;5110766;28;20470;-55
2023/06/08 06:41:42;;;;;;;5.03;2.67;;;;;;;-143.84;35.42;44955.75;5111130;28;20501;-55
2023/06/08 06:44:10;;;;;;;5.10;2.30;;;;;;;-143.84;36.51;44944.34;5110632;28;20484;-55
2023/06/08 06:46:37;;;;;;;8.53;2.57;;;;;;;-143.84;35.38;44955.75;5110877;28;20433;-54
2023/06/08 06:49:06;;;;;;;2.50;2.30;;;;;;;-143.84;36.30;44986.22;5110587;28;20500;-55
2023/06/08 06:51:33;;;;;;;3.80;2.33;;;;;;;-143.84;34.91;44982.41;5110647;28;20439;-55
2023/06/08 06:54:00;;;;;;;5.37;2.60;;;;;;;-143.84;36.21;44982.41;5110482;28;20536;-55
2023/06/08 06:56:27;;;;;;;3.27;2.87;;;;;;;-143.84;37.13;44953.88;5110453;28;20439;-55
2023/06/08 06:58:56;;;;;;;6.07;2.40;;;;;;;-143.84;37.17;44942.44;5110169;28;20495;-54
2023/06/08 07:01:23;;;;;;;5.10;2.03;;;;;;;-143.84;35.59;44961.47;5110525;28;20799;-54
2023/06/08 07:03:51;;;;;;;4.90;2.43;;;;;;;-143.84;36.39;44950.06;5110349;28;20524;-55
2023/06/08 07:06:23;;;;;;;4.03;2.77;;;;;;;-143.84;36.04;44959.56;5110286;28;20859;-55
2023/06/08 07:08:50;;;;;;;4.53;2.27;;;;;;;-143.84;35.54;44934.81;5110143;28;20448;-55
2023/06/08 07:11:17;;;;;;;6.93;2.57;;;;;;;-143.84;35.11;44967.19;5110284;28;20503;-55
2023/06/08 07:13:44;;;;;;;4.03;2.20;;;;;;;-143.84;33.71;44959.56;5110317;28;20487;-55
2023/06/08 07:16:11;;;;;;;5.67;2.40;;;;;;;-143.84;33.94;44953.88;5109943;28;21049;-54
2023/06/08 07:18:38;;;;;;;2.60;2.30;;;;;;;-143.84;32.79;44972.91;5110052;28;20450;-55
2023/06/08 07:21:06;;;;;;;3.33;1.97;;;;;;;-143.84;32.63;44951.97;5109698;28;20445;-55
2023/06/08 07:23:34;;;;;;;3.60;1.97;;;;;;;-143.84;33.53;44961.47;5110012;28;20447;-55
2023/06/08 07:26:01;;;;;;;4.53;1.90;;;;;;;-143.84;33.80;44969.09;5110054;28;20500;-55
2023/06/08 07:28:28;;;;;;;2.53;2.33;;;;;;;-143.84;33.74;44965.28;5109800;28;20496;-54
2023/06/08 07:30:56;;;;;;;4.47;2.40;;;;;;;-143.84;32.20;44953.88;5109969;28;20451;-54
2023/06/08 07:33:23;;;;;;;11.33;2.50;;;;;;;-143.84;32.54;44927.19;5109555;28;20994;-54
2023/06/08 07:35:50;;;;;;;3.97;2.10;;;;;;;-143.84;32.20;44948.16;5109886;28;20447;-55
2023/06/08 07:38:17;;;;;;;2.23;2.13;;;;;;;-143.84;33.04;44942.44;5109780;28;20892;-55
2023/06/08 07:40:45;;;;;;;2.70;1.90;;;;;;;-143.84;33.54;44948.16;5109843;28;20438;-55
2023/06/08 07:43:13;;;;;;;5.97;2.30;;;;;;;-143.84;32.18;44942.44;5109946;28;20496;-54
2023/06/08 07:45:40;;;;;;;2.53;2.30;;;;;;;-143.84;31.79;44948.16;5109911;28;20442;-55
2023/06/08 07:48:07;;;;;;;7.60;2.50;;;;;;;-143.84;32.40;44951.97;5109899;28;20488;-50
2023/06/08 07:50:34;;;;;;;18.73;2.13;;;;;;;-143.84;31.43;44965.28;5110056;28;21298;-52
2023/06/08 07:53:01;;;;;;;2.13;1.77;;;;;;;-143.84;31.69;44974.81;5110097;28;20913;-51
2023/06/08 07:55:28;;;;;;;8.17;2.20;;;;;;;-143.84;32.70;44936.72;5109766;28;20478;-51
2023/06/08 07:57:57;;;;;;;4.23;2.50;;;;;;;-143.84;32.48;44936.72;5109543;28;20441;-51
2023/06/08 08:00:26;;;;;;;4.10;2.27;;;;;;;-143.84;31.18;44950.06;5109635;28;20982;-50
2023/06/08 08:02:54;;;;;;;4.17;1.90;;;;;;;-143.84;32.09;44948.16;5109407;28;20438;-54
2023/06/08 08:05:21;;;;;;;7.20;2.23;;;;;;;-143.84;32.38;44938.63;5109688;28;20438;-54
2023/06/08 08:07:48;;;;;;;3.30;2.23;;;;;;;-143.84;32.55;44938.63;5109146;28;20494;-54
2023/06/08 08:10:15;;;;;;;3.97;2.23;;;;;;;-143.84;32.58;44944.34;5109221;28;20487;-54
2023/06/08 08:12:43;;;;;;;3.83;2.30;;;;;;;-143.84;32.25;44944.34;5108865;28;20437;-54
2023/06/08 08:15:12;;;;;;;6.97;2.43;;;;;;;-143.84;32.67;44951.97;5108875;28;20619;-54
2023/06/08 08:17:40;;;;;;;3.43;2.53;;;;;;;-143.84;31.41;44942.44;5109415;28;20471;-54
2023/06/08 08:20:10;;;;;;;6.77;2.40;;;;;;;-143.84;31.86;44961.47;5109293;28;20443;-54
2023/06/08 08:22:37;;;;;;;2.73;2.03;;;;;;;-143.84;31.82;44950.06;5109089;28;20434;-54
2023/06/08 08:25:05;;;;;;;9.43;2.10;;;;;;;-143.84;33.32;44942.44;5109161;28;20442;-54
2023/06/08 08:27:32;;;;;;;7.17;2.50;;;;;;;-143.84;31.91;44938.63;5108941;28;20484;-54
2023/06/08 08:29:59;;;;;;;3.57;2.10;;;;;;;-143.84;32.66;44940.53;5109305;28;20485;-54
2023/06/08 08:32:27;;;;;;;11.13;2.37;;;;;;;-143.84;33.85;44951.97;5109467;28;20436;-54
2023/06/08 08:34:54;;;;;;;3.13;2.03;;;;;;;-143.84;32.63;44953.88;5113340;28;20478;-54
2023/06/08 08:37:22;;;;;;;4.90;1.90;;;;;;;-143.84;31.37;44919.59;5113336;28;20450;-54
2023/06/08 08:39:49;;;;;;;7.33;1.90;;;;;;;-143.84;31.80;44972.91;5113040;28;20452;-54
2023/06/08 08:42:23;;;;;;;3.93;2.20;;;;;;;-143.84;31.95;44948.16;5113034;28;20449;-54
2023/06/08 08:44:54;;;;;;;10.10;2.23;;;;;;;-143.84;32.32;44969.09;5113258;28;20505;-55
2023/06/08 08:47:22;;;;;;;4.27;1.93;;;;;;;-143.84;32.61;44950.06;5113282;28;20447;-55
2023/06/08 08:49:59;;;;;;;2.60;2.40;;;;;;;-143.84;32.47;44917.69;5113005;28;20825;-55
2023/06/08 08:52:30;;;;;;;4.07;2.20;;;;;;;-143.84;33.07;44971.00;5111493;28;20446;-55
2023/06/08 08:55:00;;;;;;;5.33;2.33;;;;;;;-143.84;33.33;44917.69;5092394;28;20512;-55
2023/06/08 08:57:29;;;;;;;3.27;2.27;;;;;;;-143.84;34.84;44955.75;5092346;28;20442;-55
2023/06/08 08:59:56;;;;;;;3.67;2.10;;;;;;;-143.84;33.71;44972.91;5092492;28;20436;-55
2023/06/08 09:02:24;;;;;;;3.77;2.53;;;;;;;-143.84;32.68;44950.06;5092131;28;20444;-55
2023/06/08 09:04:53;;;;;;;6.30;1.97;;;;;;;-143.84;33.68;44946.25;5092243;28;20523;-55
2023/06/08 09:07:24;;;;;;;3.40;2.20;;;;;;;-143.84;33.44;44951.97;5092102;28;20478;-55
2023/06/08 09:10:17;;;;;;;2.77;2.37;;;;;;;-143.84;32.49;44946.25;5092076;28;20439;-54
2023/06/08 09:12:46;;;;;;;2.60;2.00;;;;;;;-143.84;32.07;44976.72;5092189;28;20447;-55
2023/06/08 09:15:16;;;;;;;6.90;3.47;;;;;;;-143.84;31.94;44957.66;5091990;28;20578;-55
2023/06/08 09:17:44;;;;;;;5.70;2.33;;;;;;;-143.84;32.07;44955.75;5092733;28;20439;-55
2023/06/08 09:20:13;;;;;;;2.80;1.90;;;;;;;-143.84;32.92;44984.31;5092134;28;20445;-55
2023/06/08 09:22:41;;;;;;;4.70;2.23;;;;;;;-143.84;34.10;44959.56;5092263;28;20443;-55
2023/06/08 09:25:09;;;;;;;5.37;2.00;;;;;;;-143.84;33.53;44969.09;5092080;28;20464;-55
2023/06/08 09:27:37;;;;;;;8.37;2.00;;;;;;;-143.84;33.43;44953.88;5091940;28;20974;-55
2023/06/08 09:30:23;;;;;;;7.00;2.40;;;;;;;-143.84;33.66;44953.88;5091867;28;20430;-55
2023/06/08 09:32:50;;;;;;;5.23;2.40;;;;;;;-143.84;33.66;44963.38;5091849;28;20436;-56
2023/06/08 09:35:24;;;;;;;3.83;1.77;;;;;;;-143.84;33.97;44980.53;5091630;28;20480;-55
2023/06/08 09:37:52;;;;;;;5.93;2.53;;;;;;;-143.84;36.06;44963.38;5091851;28;20449;-56
2023/06/08 09:40:22;;;;;;;2.80;2.20;;;;;;;-143.84;34.70;44990.03;5091589;28;20444;-55
2023/06/08 09:42:53;;;;;;;9.00;2.30;;;;;;;-143.84;33.98;44972.91;5093455;28;20881;-55
2023/06/08 09:45:21;;;;;;;6.60;3.10;;;;;;;-143.84;33.27;44974.81;5111357;28;20448;-56
2023/06/08 09:47:48;;;;;;;3.30;2.03;;;;;;;-143.84;34.24;44971.00;5112782;28;21321;-54
2023/06/08 09:50:15;;;;;;;3.10;2.43;;;;;;;-143.84;36.48;44965.28;5112986;28;20442;-53
2023/06/08 09:52:48;;;;;;;3.40;2.10;;;;;;;-143.84;35.32;44940.53;5112471;28;21012;-53
2023/06/08 09:55:17;;;;;;;5.07;2.53;;;;;;;-143.84;38.12;44965.28;5111721;28;20475;-55
2023/06/08 09:57:46;;;;;;;8.30;2.33;;;;;;;-143.84;37.95;44971.00;5111324;28;20823;-54
2023/06/08 10:00:17;;;;;;;9.23;2.07;;;;;;;-143.84;37.60;44946.25;5112529;28;20433;-55
2023/06/08 10:02:54;;;;;;;5.17;1.87;;;;;;;-143.84;36.22;44990.03;5111716;28;20443;-54
2023/06/08 10:05:23;;;;;;;8.50;1.97;;;;;;;-143.84;35.53;44963.38;5111611;28;20459;-54
2023/06/08 10:07:55;;;;;;;10.60;2.30;;;;;;;-143.84;35.71;44980.53;5112417;28;20504;-54
2023/06/08 10:10:25;;;;;;;9.30;2.40;;;;;;;-143.84;35.52;44951.97;5112229;28;20468;-54
2023/06/08 10:12:53;;;;;;;3.53;2.30;;;;;;;-143.84;35.50;44978.63;5112138;28;20938;-54
2023/06/08 10:15:22;;;;;;;12.83;2.57;;;;;;;-143.84;34.41;44974.81;5111786;28;20499;-54
2023/06/08 10:17:50;;;;;;;4.40;2.13;;;;;;;-143.84;34.57;44948.16;5112161;28;20535;-54
2023/06/08 10:20:18;;;;;;;2.30;2.10;;;;;;;-143.84;32.81;44948.16;5111939;28;20443;-54
2023/06/08 10:22:46;;;;;;;2.13;1.93;;;;;;;-143.84;34.90;44953.88;5111827;28;20450;-55
2023/06/08 10:25:16;;;;;;;5.13;2.43;;;;;;;-143.84;34.22;44957.66;5112044;28;20448;-55
2023/06/08 10:27:51;;;;;;;8.23;3.10;;;;;;;-143.84;34.74;44942.44;5112331;28;21150;-55
2023/06/08 10:30:30;;;;;;;4.07;2.17;;;;;;;-143.84;33.17;44974.81;5112075;28;20784;-55
2023/06/08 10:33:08;;;;;;;8.00;2.33;;;;;;;-143.84;33.97;44931.00;5112119;28;20440;-54
2023/06/08 10:35:35;;;;;;;4.90;2.43;;;;;;;-143.84;35.32;44955.75;5112095;28;20510;-55
2023/06/08 10:38:13;;;;;;;5.67;2.10;;;;;;;-143.84;35.78;44963.38;5111914;28;20501;-55
2023/06/08 10:40:47;;;;;;;3.87;2.70;;;;;;;-143.84;35.05;44963.38;5112245;28;20546;-54
2023/06/08 10:43:14;;;;;;;4.57;2.20;;;;;;;-143.84;35.64;44959.56;5111778;28;20504;-55
2023/06/08 10:45:44;;;;;;;8.90;2.43;;;;;;;-143.84;35.01;44965.28;5112081;28;20465;-54
2023/06/08 10:48:16;;;;;;;3.67;2.07;;;;;;;-143.84;35.10;44972.91;5111943;28;20894;-55
2023/06/08 10:50:44;;;;;;;41.30;9.90;;;;;;;-143.84;35.26;44976.72;5111381;28;20951;-55
2023/06/08 10:53:11;;;;;;;5.20;3.10;;;;;;;-143.84;36.82;44978.63;5111676;28;20485;-55
2023/06/08 10:55:38;;;;;;;6.13;3.93;;;;;;;-143.84;36.00;44974.81;5111285;28;20517;-55
2023/06/08 10:58:16;;;;;;;16.37;3.43;;;;;;;-143.84;35.99;44950.06;5110648;28;20448;-55
2023/06/08 11:00:43;;;;;;;7.93;2.80;;;;;;;-143.84;36.62;44978.63;5111472;28;20435;-55
2023/06/08 11:03:14;;;;;;;10.20;2.50;;;;;;;-143.84;35.85;44948.16;5110667;28;20444;-55
2023/06/08 11:05:43;;;;;;;11.33;2.40;;;;;;;-143.84;35.85;44967.19;5110407;28;20544;-55
2023/06/08 11:08:11;;;;;;;6.80;2.43;;;;;;;-143.84;35.90;44997.66;5110499;28;20444;-55
2023/06/08 11:10:39;;;;;;;6.43;2.63;;;;;;;-143.84;36.16;44957.66;5110207;28;20435;-55
2023/06/08 11:13:10;;;;;;;4.70;2.40;;;;;;;-143.84;36.64;44967.19;5110327;28;20447;-55
2023/06/08 11:15:38;;;;;;;35.50;6.87;;;;;;;-143.84;36.07;44957.66;5110021;28;20491;-55
2023/06/08 11:18:07;;;;;;;6.47;3.30;;;;;;;-143.84;36.44;44969.09;5110035;28;20437;-55
2023/06/08 11:20:37;;;;;;;8.70;2.27;;;;;;;-143.84;35.22;44984.31;5110409;28;21289;-55
2023/06/08 11:23:07;;;;;;;6.70;3.07;;;;;;;-143.84;34.99;44972.91;5110610;28;20460;-55